Terminal Aerodrome Forecast
Issued by NWS

Home | Current Version | Previous Version | Text Only | Print | Product List | Glossary On
Versions: 1 2 3 4 5 6 7 8 9 10 11 12 13 14
000
FTUS43 KBIS 290200 AAA
TAFMOT
TAF AMD
KMOT 290230Z 2903/2924 32017G25KT 6SM BR OVC012
     FM290600 33014KT P6SM OVC012
     FM292000 VRB05KT P6SM SCT012=

USA.gov is the U.S. government's official web portal to all federal, state and local government web resources and services.